createdAt,value
2024-05-09T00:00:29.762Z,100618.02
2024-05-09T00:03:43.805Z,100619.87
2024-05-09T00:06:33.307Z,100619.31
2024-05-09T00:09:22.782Z,100619.75
2024-05-09T00:12:12.226Z,100618.60
2024-05-09T00:15:02.033Z,100619.46
2024-05-09T00:17:51.851Z,100617.17
2024-05-09T00:20:41.925Z,100617.02
2024-05-09T00:23:31.821Z,100620.58
2024-05-09T00:26:21.423Z,100625.41
2024-05-09T00:29:10.677Z,100632.16
2024-05-09T00:32:00.669Z,100631.60
2024-05-09T00:34:49.913Z,100624.48
2024-05-09T00:37:39.759Z,100622.48
2024-05-09T00:40:38.752Z,100618.92
2024-05-09T00:43:32.776Z,100621.58
2024-05-09T00:46:22.215Z,100618.39
2024-05-09T00:49:12.197Z,100615.45
2024-05-09T00:52:01.668Z,100613.30
2024-05-09T00:54:50.872Z,100616.18
2024-05-09T00:57:40.815Z,100614.80
2024-05-09T01:00:37.803Z,100621.81
2024-05-09T01:03:30.191Z,100625.95
2024-05-09T01:06:20.455Z,100628.63
2024-05-09T01:09:09.870Z,100625.21
2024-05-09T01:11:59.379Z,100626.09
2024-05-09T01:14:49.017Z,100626.94
2024-05-09T01:17:38.948Z,100620.39
2024-05-09T01:20:39.172Z,100622.05
2024-05-09T01:23:31.952Z,100626.80
2024-05-09T01:26:21.780Z,100629.98
2024-05-09T01:29:11.228Z,100634.79
2024-05-09T01:32:00.800Z,100634.16
2024-05-09T01:34:50.628Z,100635.52
2024-05-09T01:37:40.458Z,100633.27
2024-05-09T01:40:37.165Z,100630.13
2024-05-09T01:43:29.415Z,100629.46
2024-05-09T01:46:19.634Z,100631.36
2024-05-09T01:49:09.352Z,100635.44
2024-05-09T01:51:59.009Z,100633.39
2024-05-09T01:54:48.675Z,100633.95
2024-05-09T01:57:38.342Z,100634.54
2024-05-09T02:00:37.942Z,100632.84
2024-05-09T02:03:31.882Z,100635.70
2024-05-09T02:06:21.405Z,100635.59
2024-05-09T02:09:10.992Z,100631.13
2024-05-09T02:12:01.471Z,100629.79
2024-05-09T02:14:51.773Z,100632.01
2024-05-09T02:17:41.438Z,100629.77
2024-05-09T02:20:36.156Z,100629.45
2024-05-09T02:23:26.469Z,100625.99
2024-05-09T02:26:15.671Z,100625.96
2024-05-09T02:29:05.199Z,100624.64
2024-05-09T02:31:54.714Z,100623.09
2024-05-09T02:34:44.277Z,100621.30
2024-05-09T02:37:33.804Z,100625.85
2024-05-09T02:40:33.011Z,100624.85
2024-05-09T02:43:27.088Z,100623.98
2024-05-09T02:46:16.243Z,100626.31
2024-05-09T02:49:06.175Z,100625.52
2024-05-09T02:51:55.504Z,100626.73
2024-05-09T02:54:45.073Z,100631.74
2024-05-09T02:57:34.344Z,100637.13
2024-05-09T03:00:29.918Z,100634.04
2024-05-09T03:03:27.774Z,100640.56
2024-05-09T03:06:17.612Z,100638.95
2024-05-09T03:09:09.695Z,100644.08
2024-05-09T03:11:59.625Z,100638.60
2024-05-09T03:14:50.308Z,100643.45
2024-05-09T03:17:40.559Z,100645.30
2024-05-09T03:20:34.244Z,100641.59
2024-05-09T03:23:25.364Z,100643.06
2024-05-09T03:26:16.588Z,100642.36
2024-05-09T03:29:06.243Z,100641.72
2024-05-09T03:31:56.188Z,100643.48
2024-05-09T03:34:45.908Z,100643.38
2024-05-09T03:37:35.326Z,100639.67
2024-05-09T03:40:28.953Z,100637.34
2024-05-09T03:43:20.181Z,100633.38
2024-05-09T03:46:10.807Z,100633.20
2024-05-09T03:49:00.329Z,100634.83
2024-05-09T03:51:50.278Z,100635.91
2024-05-09T03:54:44.655Z,100633.83
2024-05-09T03:57:34.127Z,100634.27
2024-05-09T04:00:31.341Z,100635.33
2024-05-09T04:03:27.512Z,100637.30
2024-05-09T04:06:23.369Z,100640.65
2024-05-09T04:09:12.501Z,100640.27
2024-05-09T04:12:02.056Z,100641.82
2024-05-09T04:14:51.551Z,100637.21
2024-05-09T04:17:40.965Z,100636.93
2024-05-09T04:20:38.211Z,100642.48
2024-05-09T04:23:30.040Z,100642.69
2024-05-09T04:26:19.807Z,100645.81
2024-05-09T04:29:09.387Z,100644.88
2024-05-09T04:31:59.192Z,100648.55
2024-05-09T04:34:48.751Z,100655.97
2024-05-09T04:37:38.081Z,100661.37
2024-05-09T04:40:33.503Z,100660.49
2024-05-09T04:43:25.327Z,100663.48
2024-05-09T04:46:14.895Z,100660.84
2024-05-09T04:49:04.478Z,100655.30
2024-05-09T04:51:54.366Z,100658.04
2024-05-09T04:54:43.822Z,100663.40
2024-05-09T04:57:34.030Z,100664.93
2024-05-09T05:00:32.388Z,100666.70
2024-05-09T05:03:28.967Z,100666.00
2024-05-09T05:06:18.925Z,100661.53
2024-05-09T05:09:08.499Z,100663.70
2024-05-09T05:11:59.753Z,100661.15
2024-05-09T05:14:49.187Z,100663.27
2024-05-09T05:17:38.945Z,100666.02
2024-05-09T05:20:33.474Z,100666.46
2024-05-09T05:23:24.614Z,100671.98
2024-05-09T05:26:20.497Z,100669.98
2024-05-09T05:29:10.419Z,100667.77
2024-05-09T05:31:59.650Z,100668.29
2024-05-09T05:34:49.050Z,100669.16
2024-05-09T05:37:38.790Z,100667.70
2024-05-09T05:40:35.767Z,100658.81
2024-05-09T05:43:27.367Z,100662.81
2024-05-09T05:46:16.935Z,100658.10
2024-05-09T05:49:06.772Z,100660.55
2024-05-09T05:51:55.783Z,100658.81
2024-05-09T05:54:48.638Z,100661.20
2024-05-09T05:57:38.418Z,100661.52
2024-05-09T06:00:34.736Z,100661.08
2024-05-09T06:03:29.557Z,100661.02
2024-05-09T06:06:19.737Z,100658.16
2024-05-09T06:09:08.998Z,100653.76
2024-05-09T06:11:58.842Z,100651.59
2024-05-09T06:14:49.273Z,100654.66
2024-05-09T06:17:39.263Z,100654.83
2024-05-09T06:20:35.722Z,100651.73
2024-05-09T06:23:27.411Z,100658.27
2024-05-09T06:26:17.336Z,100660.23
2024-05-09T06:29:06.611Z,100656.68
2024-05-09T06:31:59.520Z,100655.71
2024-05-09T06:34:49.762Z,100660.98
2024-05-09T06:37:39.502Z,100657.95
2024-05-09T06:40:37.110Z,100651.89
2024-05-09T06:43:29.408Z,100652.14
2024-05-09T06:46:19.281Z,100653.89
2024-05-09T06:49:09.636Z,100653.55
2024-05-09T06:51:59.360Z,100658.50
2024-05-09T06:54:49.137Z,100658.99
2024-05-09T06:57:40.562Z,100656.48
2024-05-09T07:00:38.579Z,100657.26
2024-05-09T07:03:31.918Z,100655.34
2024-05-09T07:06:22.504Z,100655.77
2024-05-09T07:09:11.982Z,100654.66
2024-05-09T07:12:01.890Z,100654.55
2024-05-09T07:14:51.451Z,100651.52
2024-05-09T07:17:41.135Z,100656.50
2024-05-09T07:20:34.620Z,100657.88
2024-05-09T07:23:24.168Z,100662.77
2024-05-09T07:26:13.944Z,100662.86
2024-05-09T07:29:03.541Z,100662.05
2024-05-09T07:31:53.106Z,100660.36
2024-05-09T07:34:42.794Z,100659.25
2024-05-09T07:37:32.834Z,100656.45
2024-05-09T07:40:31.878Z,100659.70
2024-05-09T07:43:28.071Z,100661.30
2024-05-09T07:47:14.307Z,100657.82
2024-05-09T07:55:11.477Z,100648.39
2024-05-09T07:58:01.211Z,100643.85
2024-05-09T08:00:51.388Z,100645.70
2024-05-09T08:03:40.962Z,100646.02
2024-05-09T08:06:30.735Z,100643.90
2024-05-09T08:09:21.421Z,100645.95
2024-05-09T08:12:12.830Z,100647.75
2024-05-09T08:15:03.123Z,100647.64
2024-05-09T08:17:52.985Z,100647.93
2024-05-09T08:20:42.687Z,100648.11
2024-05-09T08:23:31.814Z,100647.08
2024-05-09T08:26:22.207Z,100648.00
2024-05-09T08:29:12.298Z,100647.21
2024-05-09T08:32:02.145Z,100648.70
2024-05-09T08:34:51.608Z,100646.01
2024-05-09T08:37:43.680Z,100639.95
2024-05-09T08:40:36.104Z,100642.64
2024-05-09T08:43:26.999Z,100641.54
2024-05-09T08:46:19.190Z,100635.33
2024-05-09T08:49:09.185Z,100635.48
2024-05-09T08:51:59.100Z,100636.32
2024-05-09T08:54:48.510Z,100639.25
2024-05-09T08:57:37.537Z,100638.04
2024-05-09T09:00:35.580Z,100640.22
2024-05-09T09:03:27.406Z,100637.92
2024-05-09T09:06:18.364Z,100643.88
2024-05-09T09:09:07.556Z,100640.71
2024-05-09T09:11:57.949Z,100641.42
2024-05-09T09:14:48.338Z,100639.67
2024-05-09T09:17:38.056Z,100635.81
2024-05-09T09:20:35.327Z,100634.73
2024-05-09T09:23:29.825Z,100636.59
2024-05-09T09:26:19.747Z,100637.39
2024-05-09T09:29:09.026Z,100637.83
2024-05-09T09:32:03.706Z,100637.19
2024-05-09T09:34:53.018Z,100638.91
2024-05-09T09:37:42.657Z,100636.66
2024-05-09T09:40:39.074Z,100634.83
2024-05-09T09:43:32.451Z,100636.73
2024-05-09T09:46:22.065Z,100637.30
2024-05-09T09:49:11.779Z,100636.76
2024-05-09T09:52:02.391Z,100635.08
2024-05-09T09:54:51.706Z,100625.65
2024-05-09T09:57:42.620Z,100627.40
2024-05-09T10:00:33.604Z,100619.92
2024-05-09T10:03:23.698Z,100616.21
2024-05-09T10:06:13.782Z,100613.95
2024-05-09T10:09:04.158Z,100612.13
2024-05-09T10:11:59.714Z,100608.41
2024-05-09T10:14:50.886Z,100608.77
2024-05-09T10:17:49.323Z,100605.55
2024-05-09T10:20:42.949Z,100605.00
2024-05-09T10:23:33.746Z,100605.31
2024-05-09T10:26:44.319Z,100602.23
2024-05-09T10:29:34.091Z,100603.64
2024-05-09T10:32:24.630Z,100600.79
2024-05-09T10:35:19.498Z,100597.70
2024-05-09T10:38:08.956Z,100592.95
2024-05-09T10:40:58.844Z,100584.23
2024-05-09T10:43:48.413Z,100582.41
2024-05-09T10:46:38.204Z,100578.92
2024-05-09T10:49:28.050Z,100585.55
2024-05-09T10:52:24.553Z,100578.08
2024-05-09T10:55:14.419Z,100580.39
2024-05-09T10:58:03.942Z,100581.14
2024-05-09T11:00:57.792Z,100578.83
2024-05-09T11:03:48.191Z,100574.24
2024-05-09T11:06:38.436Z,100569.89
2024-05-09T11:09:27.717Z,100567.70
2024-05-09T11:12:17.186Z,100571.96
2024-05-09T11:15:06.547Z,100567.20
2024-05-09T11:17:56.044Z,100559.84
2024-05-09T11:20:45.868Z,100566.11
2024-05-09T11:23:35.480Z,100563.17
2024-05-09T11:26:28.132Z,100565.96
2024-05-09T11:29:19.438Z,100562.86
2024-05-09T11:32:11.672Z,100560.20
2024-05-09T11:35:01.058Z,100553.13
2024-05-09T11:37:50.212Z,100557.32
2024-05-09T11:40:40.003Z,100553.70
2024-05-09T11:43:29.958Z,100551.02
2024-05-09T11:46:19.277Z,100549.96
2024-05-09T11:49:09.514Z,100554.23
2024-05-09T11:51:59.080Z,100551.20
2024-05-09T11:54:49.574Z,100546.81
2024-05-09T11:57:39.281Z,100549.44
2024-05-09T12:00:34.352Z,100546.81
2024-05-09T12:03:27.061Z,100546.84
2024-05-09T12:06:17.274Z,100545.30
2024-05-09T12:09:06.909Z,100540.95
2024-05-09T12:11:56.391Z,100541.98
2024-05-09T12:14:46.061Z,100540.43
2024-05-09T12:17:35.727Z,100538.75
2024-05-09T12:20:32.433Z,100533.41
2024-05-09T12:23:25.736Z,100529.83
2024-05-09T12:26:15.977Z,100519.47
2024-05-09T12:29:05.707Z,100514.02
2024-05-09T12:31:55.111Z,100512.29
2024-05-09T12:34:44.734Z,100515.05
2024-05-09T12:37:34.336Z,100511.02
2024-05-09T12:40:34.020Z,100516.48
2024-05-09T12:43:28.033Z,100513.98
2024-05-09T12:46:20.574Z,100512.30
2024-05-09T12:49:10.530Z,100511.89
2024-05-09T12:52:00.089Z,100507.39
2024-05-09T12:54:49.857Z,100505.27
2024-05-09T12:57:39.506Z,100501.78
2024-05-09T13:00:33.710Z,100498.71
2024-05-09T13:03:24.320Z,100498.73
2024-05-09T13:06:14.055Z,100499.80
2024-05-09T13:09:03.937Z,100499.79
2024-05-09T13:11:54.061Z,100504.17
2024-05-09T13:14:43.703Z,100498.81
2024-05-09T13:17:33.059Z,100494.20
2024-05-09T13:20:29.422Z,100487.98
2024-05-09T13:23:22.464Z,100485.13
2024-05-09T13:26:12.262Z,100481.92
2024-05-09T13:29:01.821Z,100479.68
2024-05-09T13:31:51.585Z,100476.09
2024-05-09T13:34:41.108Z,100467.98
2024-05-09T13:37:33.042Z,100469.39
2024-05-09T13:40:31.735Z,100468.08
2024-05-09T13:43:25.559Z,100465.33
2024-05-09T13:46:15.309Z,100462.90
2024-05-09T13:49:05.282Z,100464.13
2024-05-09T13:51:55.783Z,100461.05
2024-05-09T13:54:45.099Z,100462.41
2024-05-09T13:57:34.705Z,100462.10
2024-05-09T14:03:17.131Z,100460.02
2024-05-09T14:06:10.538Z,100457.58
2024-05-09T14:09:01.704Z,100458.42
2024-05-09T14:11:50.860Z,100455.98
2024-05-09T14:14:40.506Z,100454.02
2024-05-09T14:17:30.542Z,100453.68
2024-05-09T14:20:29.923Z,100449.63
2024-05-09T14:23:22.650Z,100447.07
2024-05-09T14:26:11.931Z,100449.08
2024-05-09T14:29:01.698Z,100449.18
2024-05-09T14:31:51.287Z,100448.80
2024-05-09T14:34:41.172Z,100451.11
2024-05-09T14:37:31.242Z,100448.60
2024-05-09T14:40:31.099Z,100443.30
2024-05-09T14:43:29.197Z,100445.52
2024-05-09T14:46:19.426Z,100439.92
2024-05-09T14:49:11.607Z,100437.89
2024-05-09T14:52:01.606Z,100433.05
2024-05-09T14:54:59.964Z,100428.94
2024-05-09T14:57:50.447Z,100426.98
2024-05-09T15:00:47.743Z,100426.09
2024-05-09T15:03:40.904Z,100418.63
2024-05-09T15:06:30.882Z,100416.41
2024-05-09T15:09:20.196Z,100420.45
2024-05-09T15:12:10.285Z,100416.02
2024-05-09T15:14:59.865Z,100413.02
2024-05-09T15:17:49.517Z,100411.46
2024-05-09T15:20:40.384Z,100407.44
2024-05-09T15:23:30.323Z,100409.19
2024-05-09T15:26:20.320Z,100410.30
2024-05-09T15:29:09.693Z,100407.71
2024-05-09T15:31:59.451Z,100405.95
2024-05-09T15:34:49.050Z,100409.11
2024-05-09T15:37:38.402Z,100402.63
2024-05-09T15:40:36.127Z,100400.92
2024-05-09T15:43:30.063Z,100398.02
2024-05-09T15:46:19.638Z,100394.41
2024-05-09T15:49:09.491Z,100393.69
2024-05-09T15:51:58.714Z,100391.60
2024-05-09T15:54:48.359Z,100390.31
2024-05-09T15:57:38.417Z,100392.22
2024-05-09T16:00:36.525Z,100387.84
2024-05-09T16:03:30.395Z,100386.77
2024-05-09T16:06:19.961Z,100390.41
2024-05-09T16:09:09.747Z,100391.92
2024-05-09T16:11:59.277Z,100389.55
2024-05-09T16:14:50.639Z,100386.52
2024-05-09T16:17:40.860Z,100390.56
2024-05-09T16:20:38.760Z,100386.46
2024-05-09T16:23:31.340Z,100386.61
2024-05-09T16:26:20.705Z,100389.66
2024-05-09T16:29:10.396Z,100383.41
2024-05-09T16:32:00.329Z,100383.21
2024-05-09T16:34:50.736Z,100384.85
2024-05-09T16:37:40.448Z,100386.90
2024-05-09T16:40:37.580Z,100384.20
2024-05-09T16:43:30.073Z,100386.05
2024-05-09T16:46:19.443Z,100390.83
2024-05-09T16:49:10.789Z,100383.44
2024-05-09T16:52:00.061Z,100382.52
2024-05-09T16:54:49.585Z,100385.08
2024-05-09T16:57:39.394Z,100384.65
2024-05-09T17:00:38.512Z,100380.77
2024-05-09T17:03:32.401Z,100380.05
2024-05-09T17:06:22.414Z,100380.49
2024-05-09T17:09:15.488Z,100382.95
2024-05-09T17:12:05.656Z,100383.96
2024-05-09T17:14:55.339Z,100382.69
2024-05-09T17:17:45.322Z,100380.84
2024-05-09T17:20:36.871Z,100381.29
2024-05-09T17:23:28.267Z,100380.58
2024-05-09T17:26:19.214Z,100376.94
2024-05-09T17:29:12.293Z,100376.80
2024-05-09T17:32:02.000Z,100375.17
2024-05-09T17:34:51.232Z,100376.70
2024-05-09T17:37:40.853Z,100374.65
2024-05-09T17:40:34.758Z,100372.95
2024-05-09T17:43:26.613Z,100371.47
2024-05-09T17:46:16.032Z,100372.39
2024-05-09T17:49:05.320Z,100372.92
2024-05-09T17:51:54.924Z,100374.07
2024-05-09T17:54:44.099Z,100372.80
2024-05-09T17:57:34.002Z,100375.78
2024-05-09T18:00:34.291Z,100373.33
2024-05-09T18:03:28.973Z,100379.70
2024-05-09T18:06:18.922Z,100388.22
2024-05-09T18:09:08.404Z,100387.14
2024-05-09T18:11:58.031Z,100389.67
2024-05-09T18:14:47.450Z,100387.77
2024-05-09T18:17:37.417Z,100393.28
2024-05-09T18:20:37.885Z,100392.72
2024-05-09T18:23:32.868Z,100391.18
2024-05-09T18:26:22.574Z,100395.06
2024-05-09T18:29:11.727Z,100398.83
2024-05-09T18:32:02.122Z,100401.38
2024-05-09T18:34:51.445Z,100404.98
2024-05-09T18:37:42.430Z,100407.91
2024-05-09T18:40:35.667Z,100409.02
2024-05-09T18:43:35.195Z,100414.17
2024-05-09T18:46:32.309Z,100415.00
2024-05-09T18:49:22.983Z,100420.86
2024-05-09T18:52:12.532Z,100426.54
2024-05-09T18:55:02.095Z,100428.23
2024-05-09T18:57:51.428Z,100433.49
2024-05-09T19:00:44.019Z,100440.02
2024-05-09T19:03:35.684Z,100443.79
2024-05-09T19:06:25.359Z,100446.05
2024-05-09T19:09:14.932Z,100449.55
2024-05-09T19:12:06.400Z,100452.14
2024-05-09T19:14:55.832Z,100449.86
2024-05-09T19:17:45.644Z,100452.12
2024-05-09T19:20:36.450Z,100456.98
2024-05-09T19:23:26.782Z,100460.17
2024-05-09T19:26:16.088Z,100463.63
2024-05-09T19:29:05.558Z,100462.94
2024-05-09T19:31:55.245Z,100461.91
2024-05-09T19:34:45.004Z,100466.41
2024-05-09T19:37:34.687Z,100467.61
2024-05-09T19:40:30.438Z,100466.30
2024-05-09T19:43:22.858Z,100470.73
2024-05-09T19:46:12.861Z,100472.16
2024-05-09T19:49:03.283Z,100470.67
2024-05-09T19:51:53.229Z,100472.01
2024-05-09T19:54:43.035Z,100473.39
2024-05-09T19:57:32.418Z,100471.02
2024-05-09T20:00:29.143Z,100471.61
2024-05-09T20:03:24.582Z,100469.48
2024-05-09T20:06:13.985Z,100472.30
2024-05-09T20:09:03.664Z,100471.38
2024-05-09T20:11:53.492Z,100471.72
2024-05-09T20:14:42.816Z,100468.63
2024-05-09T20:17:32.488Z,100464.70
2024-05-09T20:20:34.957Z,100467.45
2024-05-09T20:23:28.234Z,100467.67
2024-05-09T20:26:17.914Z,100469.31
2024-05-09T20:29:07.587Z,100467.05
2024-05-09T20:31:57.314Z,100469.21
2024-05-09T20:34:50.689Z,100469.72
2024-05-09T20:37:40.002Z,100470.40
2024-05-09T20:40:33.997Z,100472.05
2024-05-09T20:43:27.013Z,100468.03
2024-05-09T20:46:16.139Z,100466.58
2024-05-09T20:49:05.805Z,100466.99
2024-05-09T20:51:55.799Z,100468.50
2024-05-09T20:54:45.297Z,100467.34
2024-05-09T20:57:35.158Z,100472.08
2024-05-09T21:00:33.708Z,100467.38
2024-05-09T21:03:28.907Z,100466.16
2024-05-09T21:06:18.179Z,100464.98
2024-05-09T21:09:08.380Z,100468.67
2024-05-09T21:11:58.279Z,100468.46
2024-05-09T21:14:48.024Z,100466.71
2024-05-09T21:17:37.867Z,100470.39
2024-05-09T21:20:31.907Z,100471.23
2024-05-09T21:23:22.592Z,100469.29
2024-05-09T21:26:14.357Z,100468.23
2024-05-09T21:29:03.495Z,100464.98
2024-05-09T21:31:53.378Z,100465.60
2024-05-09T21:34:43.134Z,100464.48
2024-05-09T21:37:32.619Z,100466.13
2024-05-09T21:40:30.701Z,100463.71
2024-05-09T21:43:26.909Z,100462.96
2024-05-09T21:46:17.186Z,100466.09
2024-05-09T21:49:06.556Z,100465.48
2024-05-09T21:51:56.112Z,100464.20
2024-05-09T21:54:45.624Z,100466.58
2024-05-09T21:57:35.007Z,100469.36
2024-05-09T22:00:32.887Z,100468.76
2024-05-09T22:03:27.313Z,100468.90
2024-05-09T22:06:16.959Z,100466.69
2024-05-09T22:09:06.615Z,100469.89
2024-05-09T22:11:57.711Z,100470.52
2024-05-09T22:14:48.015Z,100468.15
2024-05-09T22:17:40.285Z,100466.77
2024-05-09T22:20:36.689Z,100463.30
2024-05-09T22:23:28.524Z,100462.27
2024-05-09T22:26:18.414Z,100456.81
2024-05-09T22:29:08.091Z,100461.30
2024-05-09T22:31:57.667Z,100463.59
2024-05-09T22:34:47.577Z,100463.77
2024-05-09T22:37:37.213Z,100465.30
2024-05-09T22:40:38.367Z,100461.43
2024-05-09T22:43:36.136Z,100464.42
2024-05-09T22:46:26.052Z,100463.10
2024-05-09T22:49:16.184Z,100461.61
2024-05-09T22:52:06.098Z,100466.02
2024-05-09T22:54:55.526Z,100460.89
2024-05-09T22:57:44.765Z,100463.02
2024-05-09T23:00:35.172Z,100460.71
2024-05-09T23:03:25.832Z,100460.48
2024-05-09T23:06:15.704Z,100459.67
2024-05-09T23:09:07.479Z,100460.50
2024-05-09T23:11:57.862Z,100458.27
2024-05-09T23:14:47.301Z,100459.94
2024-05-09T23:17:37.572Z,100459.38
2024-05-09T23:20:35.879Z,100459.80
2024-05-09T23:23:29.545Z,100458.61
2024-05-09T23:26:18.916Z,100458.45
2024-05-09T23:29:08.589Z,100461.30
2024-05-09T23:31:57.973Z,100458.67
2024-05-09T23:34:47.795Z,100458.30
2024-05-09T23:37:37.222Z,100455.59
2024-05-09T23:40:37.415Z,100458.55
2024-05-09T23:43:29.898Z,100457.27
2024-05-09T23:46:19.582Z,100455.00
2024-05-09T23:49:11.380Z,100453.64
2024-05-09T23:52:00.500Z,100450.59
2024-05-09T23:54:50.711Z,100449.73
2024-05-09T23:57:41.027Z,100447.41
